Airfield :
LOGIN :

Register | Disclaimer

   EN    FR    IT 

 










Legend :    VFR   Marginal VFR   IFR   Intensive IFR   Very Intensive IFR
Visi :
Ceiling :
>= 8 km
>= 3000ft
5 to 8 km
1000 to 3000 ft
1500m to 5 km
500 to 1000 ft
800 to 1500m
200 to 500 ft
< 800m
< 200 ft
Symbols :   Thunderstorms  Fog  Heavy snow  Heavy precipitations  Wind > 20 kt
SIGMETs :     Misc.  Thunderstorms  Icing  Turbulence  Mountain Waves  Volcanic Ashes






- Airport Elevation : 646 ft
- IATA code : VNO


EYVI - Vilnius int.

CURRENT METAR :
  • 310350Z 03016KT CAVOK 14/05 Q1012 NOSIG

EXPIRED METARs :
  • 310320Z 03016KT CAVOK 13/05 Q1011 NOSIG
  • 310250Z 03015KT CAVOK 14/05 Q1011 NOSIG
  • 310220Z 03016KT CAVOK 13/05 Q1011 NOSIG
  • 310150Z 03017KT CAVOK 14/06 Q1011 NOSIG
  • 310120Z 03017KT CAVOK 14/06 Q1011 NOSIG

TAF TAF EYVI
Valid from the 31 at 00:00 until the 01 at 00:00 UTC


302301Z 3100/3124 02016G28KT 9000 BKN045
BECMG 3111/3112 NSC



MET'MAP, your aeronautical weather chart ! - Copyright ORBIFLY December 2007 - Disclaimer

ORBIFLY MET'MAP TEAM :

Programming & Development : Alexandra Zaïnal
Concept & original design : Baudouin d'Aumeries
Assistance for programming : Marc-Olivier Méhu
Technical & hardware support : Manuel Goepfert

Contact : metmap@orbifly.com




SOURCES & CREDITS :

   NOAA